createdAt,value
2018-08-16T00:01:37.843Z,100.00
2018-08-16T00:04:07.647Z,100.00
2018-08-16T00:06:37.405Z,100.00
2018-08-16T00:09:08.807Z,100.00
2018-08-16T00:11:38.621Z,100.00
2018-08-16T00:14:08.333Z,100.00
2018-08-16T00:16:38.062Z,100.00
2018-08-16T00:19:07.811Z,100.00
2018-08-16T00:21:37.541Z,100.00
2018-08-16T00:24:07.545Z,100.00
2018-08-16T00:26:37.422Z,100.00
2018-08-16T00:29:07.186Z,100.00
2018-08-16T00:31:36.891Z,100.00
2018-08-16T00:34:06.804Z,100.00
2018-08-16T00:36:37.088Z,100.00
2018-08-16T00:39:09.087Z,100.00
2018-08-16T00:41:45.340Z,100.00
2018-08-16T00:44:15.036Z,100.00
2018-08-16T00:46:44.932Z,100.00
2018-08-16T00:49:14.801Z,100.00
2018-08-16T00:51:44.512Z,100.00
2018-08-16T00:54:14.156Z,100.00
2018-08-16T00:56:43.780Z,100.00
2018-08-16T00:59:13.536Z,100.00
2018-08-16T01:01:43.239Z,100.00
2018-08-16T01:04:13.117Z,100.00
2018-08-16T01:06:43.635Z,100.00
2018-08-16T01:09:13.309Z,100.00
2018-08-16T01:11:43.009Z,100.00
2018-08-16T01:14:12.810Z,100.00
2018-08-16T01:16:42.481Z,100.00
2018-08-16T01:19:12.230Z,100.00
2018-08-16T01:21:41.941Z,100.00
2018-08-16T01:24:11.684Z,100.00
2018-08-16T01:26:41.329Z,100.00
2018-08-16T01:29:11.221Z,100.00
2018-08-16T01:31:40.958Z,100.00
2018-08-16T01:34:10.637Z,100.00
2018-08-16T01:36:40.328Z,100.00
2018-08-16T01:39:10.821Z,100.00
2018-08-16T01:41:40.753Z,100.00
2018-08-16T01:44:10.454Z,100.00
2018-08-16T01:46:40.256Z,100.00
2018-08-16T01:49:34.112Z,100.00
2018-08-16T01:52:03.906Z,100.00
2018-08-16T01:54:34.886Z,100.00
2018-08-16T01:57:04.836Z,100.00
2018-08-16T01:59:34.609Z,100.00
2018-08-16T02:02:04.392Z,100.00
2018-08-16T02:04:34.050Z,100.00
2018-08-16T02:07:03.873Z,100.00
2018-08-16T02:09:33.680Z,100.00
2018-08-16T02:12:03.430Z,100.00
2018-08-16T02:14:33.158Z,100.00
2018-08-16T02:17:02.840Z,100.00
2018-08-16T02:19:32.549Z,100.00
2018-08-16T02:22:02.247Z,100.00
2018-08-16T02:24:31.981Z,100.00
2018-08-16T02:27:01.768Z,100.00
2018-08-16T02:29:31.529Z,100.00
2018-08-16T02:32:01.370Z,100.00
2018-08-16T02:34:30.984Z,100.00
2018-08-16T02:38:03.906Z,100.00
2018-08-16T02:40:33.585Z,100.00
2018-08-16T02:43:03.314Z,100.00
2018-08-16T02:45:32.969Z,100.00
2018-08-16T02:48:02.808Z,100.00
2018-08-16T02:50:32.573Z,100.00
2018-08-16T02:53:02.282Z,100.00
2018-08-16T02:55:32.003Z,100.00
2018-08-16T02:58:01.748Z,100.00
2018-08-16T03:00:31.590Z,100.00
2018-08-16T03:03:01.324Z,100.00
2018-08-16T03:05:31.003Z,100.00
2018-08-16T03:08:00.706Z,100.00
2018-08-16T03:10:30.452Z,100.00
2018-08-16T03:13:00.313Z,100.00
2018-08-16T03:15:31.158Z,100.00
2018-08-16T03:18:00.990Z,100.00
2018-08-16T03:20:30.646Z,100.00
2018-08-16T03:23:00.313Z,100.00
2018-08-16T03:25:30.065Z,100.00
2018-08-16T03:27:59.741Z,100.00
2018-08-16T03:30:29.498Z,100.00
2018-08-16T03:32:59.277Z,100.00
2018-08-16T03:35:29.061Z,100.00
2018-08-16T03:37:58.957Z,100.00
2018-08-16T03:40:28.666Z,100.00
2018-08-16T03:42:58.434Z,100.00
2018-08-16T03:45:28.154Z,100.00
2018-08-16T03:47:57.795Z,100.00
2018-08-16T03:50:27.596Z,100.00
2018-08-16T03:52:57.328Z,100.00
2018-08-16T03:55:27.029Z,100.00
2018-08-16T03:57:56.734Z,100.00
2018-08-16T04:00:26.397Z,100.00
2018-08-16T04:02:56.114Z,100.00
2018-08-16T04:05:25.948Z,100.00
2018-08-16T04:07:55.729Z,100.00
2018-08-16T04:10:25.422Z,100.00
2018-08-16T04:12:55.089Z,100.00
2018-08-16T04:15:24.777Z,100.00
2018-08-16T04:17:54.607Z,100.00
2018-08-16T04:20:24.258Z,100.00
2018-08-16T04:22:54.141Z,100.00
2018-08-16T04:25:23.838Z,100.00
2018-08-16T04:27:53.574Z,100.00
2018-08-16T04:30:23.417Z,100.00
2018-08-16T04:32:53.082Z,100.00
2018-08-16T04:35:22.935Z,100.00
2018-08-16T04:37:52.581Z,100.00
2018-08-16T04:43:02.756Z,100.00
2018-08-16T04:45:32.622Z,100.00
2018-08-16T04:48:02.486Z,100.00
2018-08-16T04:50:32.214Z,100.00
2018-08-16T04:53:01.971Z,100.00
2018-08-16T04:55:31.687Z,100.00
2018-08-16T04:58:01.400Z,100.00
2018-08-16T05:00:31.125Z,100.00
2018-08-16T05:03:00.825Z,100.00
2018-08-16T05:05:30.459Z,100.00
2018-08-16T05:08:00.241Z,100.00
2018-08-16T05:10:29.869Z,100.00
2018-08-16T05:12:59.726Z,100.00
2018-08-16T05:15:29.489Z,100.00
2018-08-16T05:17:59.246Z,100.00
2018-08-16T05:20:28.989Z,100.00
2018-08-16T05:22:58.725Z,100.00
2018-08-16T05:25:28.457Z,100.00
2018-08-16T05:27:58.161Z,100.00
2018-08-16T05:30:27.865Z,100.00
2018-08-16T05:32:57.559Z,100.00
2018-08-16T05:35:27.318Z,100.00
2018-08-16T05:37:57.163Z,100.00
2018-08-16T05:40:26.983Z,100.00
2018-08-16T05:42:56.858Z,100.00
2018-08-16T05:45:26.631Z,100.00
2018-08-16T05:47:56.314Z,100.00
2018-08-16T05:50:26.072Z,100.00
2018-08-16T05:52:55.832Z,100.00
2018-08-16T05:55:25.675Z,100.00
2018-08-16T05:57:55.342Z,100.00
2018-08-16T06:00:25.041Z,100.00
2018-08-16T06:02:54.822Z,100.00
2018-08-16T06:05:24.682Z,99.40
2018-08-16T06:07:54.469Z,99.92
2018-08-16T06:10:24.226Z,97.38
2018-08-16T06:12:53.971Z,97.66
2018-08-16T06:15:23.731Z,95.86
2018-08-16T06:17:53.538Z,95.67
2018-08-16T06:20:23.261Z,94.53
2018-08-16T06:22:53.029Z,95.43
2018-08-16T06:25:22.756Z,93.32
2018-08-16T06:27:52.524Z,92.29
2018-08-16T06:30:22.534Z,91.93
2018-08-16T06:32:52.190Z,91.75
2018-08-16T06:35:21.883Z,90.38
2018-08-16T06:37:51.561Z,88.30
2018-08-16T06:40:21.350Z,90.07
2018-08-16T06:42:51.077Z,83.87
2018-08-16T06:45:20.833Z,85.53
2018-08-16T06:47:50.549Z,83.00
2018-08-16T06:50:20.398Z,77.84
2018-08-16T06:52:50.205Z,74.45
2018-08-16T06:55:19.955Z,70.88
2018-08-16T06:57:49.690Z,67.92
2018-08-16T07:00:19.539Z,62.79
2018-08-16T07:02:49.297Z,62.16
2018-08-16T07:05:19.101Z,60.45
2018-08-16T07:07:48.886Z,55.95
2018-08-16T07:10:18.733Z,53.82
2018-08-16T07:12:48.638Z,51.66
2018-08-16T07:15:18.331Z,55.55
2018-08-16T07:17:48.046Z,52.46
2018-08-16T07:20:18.369Z,52.24
2018-08-16T07:22:48.016Z,52.20
2018-08-16T07:25:17.753Z,53.04
2018-08-16T07:27:47.400Z,49.59
2018-08-16T07:30:17.150Z,50.17
2018-08-16T07:32:46.802Z,46.11
2018-08-16T07:35:16.639Z,48.99
2018-08-16T07:37:46.371Z,50.55
2018-08-16T07:40:16.106Z,50.11
2018-08-16T07:42:45.964Z,48.69
2018-08-16T07:45:15.853Z,44.77
2018-08-16T07:47:45.721Z,43.99
2018-08-16T07:50:15.554Z,46.21
2018-08-16T07:52:45.431Z,45.95
2018-08-16T07:55:15.113Z,44.18
2018-08-16T07:57:44.918Z,45.40
2018-08-16T08:00:18.229Z,45.75
2018-08-16T08:02:48.105Z,48.29
2018-08-16T08:05:17.874Z,52.39
2018-08-16T08:07:47.666Z,51.94
2018-08-16T08:10:17.439Z,45.73
2018-08-16T08:12:47.176Z,47.00
2018-08-16T08:15:17.003Z,44.28
2018-08-16T08:17:46.849Z,45.13
2018-08-16T08:20:17.337Z,46.14
2018-08-16T08:22:47.096Z,41.61
2018-08-16T08:25:16.951Z,46.68
2018-08-16T08:27:46.712Z,44.80
2018-08-16T08:30:17.609Z,45.93
2018-08-16T08:32:47.274Z,43.26
2018-08-16T08:35:16.988Z,43.55
2018-08-16T08:38:18.545Z,37.90
2018-08-16T08:40:48.366Z,38.37
2018-08-16T08:44:23.808Z,44.76
2018-08-16T08:46:55.069Z,42.12
2018-08-16T08:49:25.422Z,44.33
2018-08-16T08:51:55.918Z,44.98
2018-08-16T08:54:51.738Z,47.67
2018-08-16T08:57:38.577Z,48.07
2018-08-16T09:00:09.484Z,49.71
2018-08-16T09:02:39.250Z,49.06
2018-08-16T09:05:09.250Z,47.33
2018-08-16T09:07:39.169Z,44.29
2018-08-16T09:11:23.535Z,42.18
2018-08-16T09:14:09.944Z,39.61
2018-08-16T09:16:41.856Z,40.58
2018-08-16T09:19:12.266Z,40.87
2018-08-16T09:21:42.219Z,40.43
2018-08-16T09:24:12.097Z,38.46
2018-08-16T09:26:43.024Z,40.27
2018-08-16T09:30:39.143Z,38.00
2018-08-16T09:33:25.646Z,38.39
2018-08-16T09:35:55.375Z,38.21
2018-08-16T09:38:25.085Z,37.29
2018-08-16T09:40:54.786Z,38.86
2018-08-16T09:43:24.625Z,41.21
2018-08-16T09:47:10.303Z,41.17
2018-08-16T09:49:49.777Z,37.47
2018-08-16T09:52:20.313Z,35.58
2018-08-16T09:54:50.891Z,35.01
2018-08-16T09:57:20.679Z,36.63
2018-08-16T09:59:50.692Z,38.04
2018-08-16T10:02:20.426Z,37.22
2018-08-16T10:04:50.082Z,38.68
2018-08-16T10:07:19.763Z,39.49
2018-08-16T10:09:49.404Z,38.21
2018-08-16T10:12:19.116Z,36.77
2018-08-16T10:14:48.861Z,37.10
2018-08-16T10:17:18.459Z,37.88
2018-08-16T10:19:48.261Z,36.37
2018-08-16T10:22:18.072Z,37.27
2018-08-16T10:24:47.976Z,36.34
2018-08-16T10:27:17.685Z,36.86
2018-08-16T10:29:47.534Z,35.01
2018-08-16T10:32:17.371Z,36.24
2018-08-16T10:34:47.150Z,38.76
2018-08-16T10:37:16.957Z,38.50
2018-08-16T10:39:46.669Z,36.20
2018-08-16T10:42:16.479Z,36.37
2018-08-16T10:44:46.167Z,36.18
2018-08-16T10:47:16.009Z,33.73
2018-08-16T10:49:45.801Z,35.99
2018-08-16T10:52:15.704Z,39.47
2018-08-16T10:54:45.407Z,39.30
2018-08-16T10:57:15.121Z,39.42
2018-08-16T10:59:44.912Z,37.83
2018-08-16T11:02:14.819Z,37.37
2018-08-16T11:04:45.795Z,36.58
2018-08-16T11:07:15.575Z,37.93
2018-08-16T11:09:45.247Z,34.59
2018-08-16T11:12:15.040Z,33.81
2018-08-16T11:14:44.661Z,35.28
2018-08-16T11:17:14.353Z,36.18
2018-08-16T11:19:44.096Z,35.33
2018-08-16T11:22:13.786Z,36.15
2018-08-16T11:24:43.478Z,35.98
2018-08-16T11:27:13.160Z,36.88
2018-08-16T11:29:43.032Z,35.79
2018-08-16T11:32:12.966Z,36.38
2018-08-16T11:34:44.745Z,37.14
2018-08-16T11:37:14.835Z,37.18
2018-08-16T11:39:44.518Z,36.08
2018-08-16T11:42:14.299Z,34.48
2018-08-16T11:44:44.265Z,35.10
2018-08-16T11:47:14.099Z,35.75
2018-08-16T11:49:44.912Z,34.14
2018-08-16T11:52:14.765Z,34.93
2018-08-16T11:54:45.351Z,34.69
2018-08-16T11:57:15.053Z,36.54
2018-08-16T11:59:44.841Z,35.84
2018-08-16T12:02:14.704Z,34.91
2018-08-16T12:04:44.338Z,35.74
2018-08-16T12:07:14.006Z,35.08
2018-08-16T12:09:43.656Z,34.25
2018-08-16T12:12:13.378Z,33.67
2018-08-16T12:14:43.194Z,34.03
2018-08-16T12:17:12.856Z,35.31
2018-08-16T12:19:42.529Z,35.77
2018-08-16T12:22:12.205Z,35.86
2018-08-16T12:24:41.886Z,36.31
2018-08-16T12:27:11.878Z,34.19
2018-08-16T12:29:41.785Z,34.69
2018-08-16T12:32:11.640Z,34.81
2018-08-16T12:34:41.366Z,35.16
2018-08-16T12:37:11.293Z,33.54
2018-08-16T12:39:41.003Z,33.77
2018-08-16T12:42:10.842Z,33.35
2018-08-16T12:44:40.623Z,34.14
2018-08-16T12:47:10.369Z,34.54
2018-08-16T12:49:40.178Z,34.49
2018-08-16T12:52:10.525Z,34.88
2018-08-16T12:54:40.380Z,34.12
2018-08-16T12:57:10.041Z,34.99
2018-08-16T12:59:39.788Z,35.58
2018-08-16T13:02:10.611Z,33.84
2018-08-16T13:04:40.510Z,33.25
2018-08-16T13:07:10.314Z,33.12
2018-08-16T13:09:39.992Z,37.23
2018-08-16T13:12:09.750Z,33.68
2018-08-16T13:14:39.798Z,32.62
2018-08-16T13:17:09.613Z,32.74
2018-08-16T13:19:39.285Z,33.21
2018-08-16T13:22:09.085Z,33.77
2018-08-16T13:24:38.996Z,34.51
2018-08-16T13:27:08.896Z,34.79
2018-08-16T13:29:38.517Z,34.32
2018-08-16T13:32:08.670Z,34.04
2018-08-16T13:34:38.425Z,32.63
2018-08-16T13:37:08.170Z,32.87
2018-08-16T13:39:37.983Z,32.84
2018-08-16T13:42:07.746Z,33.47
2018-08-16T13:44:37.509Z,32.91
2018-08-16T13:47:07.320Z,33.82
2018-08-16T13:49:37.027Z,34.36
2018-08-16T13:52:07.744Z,32.88
2018-08-16T13:54:37.522Z,33.39
2018-08-16T13:57:07.831Z,32.22
2018-08-16T13:59:37.557Z,32.36
2018-08-16T14:02:07.809Z,32.79
2018-08-16T14:04:37.553Z,32.19
2018-08-16T14:07:07.364Z,31.08
2018-08-16T14:09:37.185Z,32.97
2018-08-16T14:12:07.072Z,30.66
2018-08-16T14:14:37.037Z,32.06
2018-08-16T14:17:07.609Z,30.75
2018-08-16T14:19:37.287Z,30.64
2018-08-16T14:22:07.613Z,30.56
2018-08-16T14:24:37.301Z,30.73
2018-08-16T14:27:07.272Z,30.61
2018-08-16T14:29:37.002Z,29.36
2018-08-16T14:32:06.887Z,29.77
2018-08-16T14:34:36.554Z,30.60
2018-08-16T14:37:06.820Z,32.18
2018-08-16T14:39:36.509Z,31.50
2018-08-16T14:42:06.436Z,31.96
2018-08-16T14:44:36.110Z,31.13
2018-08-16T14:47:06.156Z,33.14
2018-08-16T14:49:35.900Z,28.99
2018-08-16T14:52:05.710Z,29.17
2018-08-16T14:54:35.394Z,27.43
2018-08-16T14:57:05.131Z,29.79
2018-08-16T14:59:34.906Z,30.30
2018-08-16T15:02:04.651Z,30.10
2018-08-16T15:04:34.445Z,30.47
2018-08-16T15:07:04.420Z,29.23
2018-08-16T15:09:34.096Z,30.33
2018-08-16T15:12:03.797Z,28.75
2018-08-16T15:14:33.542Z,29.79
2018-08-16T15:17:03.363Z,31.64
2018-08-16T15:19:33.195Z,32.73
2018-08-16T15:22:02.885Z,30.25
2018-08-16T15:24:32.561Z,31.40
2018-08-16T15:27:02.592Z,31.93
2018-08-16T15:29:32.470Z,32.55
2018-08-16T15:32:02.178Z,30.95
2018-08-16T15:34:34.907Z,31.88
2018-08-16T15:37:05.846Z,32.51
2018-08-16T15:39:36.950Z,34.32
2018-08-16T15:42:07.442Z,33.78
2018-08-16T15:44:38.006Z,34.15
2018-08-16T15:47:08.517Z,33.61
2018-08-16T15:49:39.325Z,34.17
2018-08-16T15:52:09.185Z,34.12
2018-08-16T15:54:38.940Z,34.49
2018-08-16T15:57:09.229Z,35.80
2018-08-16T15:59:39.728Z,35.48
2018-08-16T16:02:09.594Z,33.86
2018-08-16T16:04:39.417Z,34.28
2018-08-16T16:07:09.179Z,34.85
2018-08-16T16:09:38.840Z,33.83
2018-08-16T16:12:08.658Z,34.58
2018-08-16T16:14:38.328Z,36.19
2018-08-16T16:17:08.146Z,34.27
2018-08-16T16:19:38.019Z,32.73
2018-08-16T16:22:07.937Z,32.92
2018-08-16T16:24:37.829Z,31.23
2018-08-16T16:27:07.761Z,32.24
2018-08-16T16:29:37.565Z,32.75
2018-08-16T16:32:07.867Z,33.84
2018-08-16T16:34:37.669Z,32.79
2018-08-16T16:37:07.563Z,35.20
2018-08-16T16:39:37.445Z,36.56
2018-08-16T16:42:07.832Z,38.01
2018-08-16T16:44:37.830Z,37.48
2018-08-16T16:47:08.836Z,38.04
2018-08-16T16:49:38.803Z,38.75
2018-08-16T16:52:09.265Z,38.72
2018-08-16T16:54:39.036Z,39.48
2018-08-16T16:57:08.844Z,41.93
2018-08-16T16:59:38.594Z,40.13
2018-08-16T17:02:08.483Z,40.73
2018-08-16T17:04:38.210Z,42.22
2018-08-16T17:07:08.049Z,42.47
2018-08-16T17:09:37.811Z,43.04
2018-08-16T17:12:08.286Z,43.71
2018-08-16T17:14:38.033Z,42.76
2018-08-16T17:17:08.148Z,43.35
2018-08-16T17:19:37.963Z,44.11
2018-08-16T17:22:08.744Z,43.94
2018-08-16T17:24:38.565Z,43.35
2018-08-16T17:27:08.247Z,43.64
2018-08-16T17:29:37.955Z,44.11
2018-08-16T17:32:08.340Z,45.19
2018-08-16T17:34:38.038Z,45.76
2018-08-16T17:37:08.019Z,45.40
2018-08-16T17:39:37.859Z,45.01
2018-08-16T17:42:07.671Z,45.71
2018-08-16T17:44:37.350Z,45.71
2018-08-16T17:47:07.196Z,46.29
2018-08-16T17:49:37.488Z,47.26
2018-08-16T17:52:07.324Z,47.82
2018-08-16T17:54:37.006Z,48.46
2018-08-16T17:57:06.893Z,47.70
2018-08-16T17:59:36.641Z,48.57
2018-08-16T18:02:06.560Z,48.64
2018-08-16T18:04:36.339Z,49.66
2018-08-16T18:07:06.107Z,49.13
2018-08-16T18:09:35.836Z,48.82
2018-08-16T18:12:05.624Z,48.74
2018-08-16T18:14:35.381Z,49.17
2018-08-16T18:17:05.126Z,50.71
2018-08-16T18:19:34.904Z,51.19
2018-08-16T18:22:04.858Z,52.57
2018-08-16T18:24:34.561Z,52.56
2018-08-16T18:27:04.386Z,52.85
2018-08-16T18:29:34.094Z,52.83
2018-08-16T18:32:03.903Z,52.50
2018-08-16T18:34:33.737Z,52.56
2018-08-16T18:37:03.829Z,54.25
2018-08-16T18:39:33.567Z,53.49
2018-08-16T18:42:03.294Z,53.97
2018-08-16T18:44:33.069Z,54.92
2018-08-16T18:47:02.797Z,54.44
2018-08-16T18:49:32.591Z,56.29
2018-08-16T18:52:02.281Z,55.46
2018-08-16T18:54:31.970Z,56.10
2018-08-16T18:57:02.054Z,57.67
2018-08-16T18:59:31.860Z,57.44
2018-08-16T19:02:01.626Z,58.80
2018-08-16T19:04:31.391Z,58.68
2018-08-16T19:07:01.136Z,59.28
2018-08-16T19:09:30.912Z,59.54
2018-08-16T19:12:00.795Z,60.65
2018-08-16T19:14:30.666Z,61.41
2018-08-16T19:17:00.511Z,61.57
2018-08-16T19:19:30.426Z,62.40
2018-08-16T19:22:00.270Z,62.33
2018-08-16T19:24:29.974Z,61.78
2018-08-16T19:26:59.807Z,62.19
2018-08-16T19:29:29.628Z,63.25
2018-08-16T19:31:59.297Z,64.08
2018-08-16T19:34:29.023Z,63.40
2018-08-16T19:36:58.781Z,63.89
2018-08-16T19:39:28.575Z,63.34
2018-08-16T19:41:58.284Z,63.70
2018-08-16T19:44:28.139Z,63.30
2018-08-16T19:46:57.897Z,63.22
2018-08-16T19:49:27.781Z,63.80
2018-08-16T19:51:57.496Z,64.54
2018-08-16T19:54:27.382Z,64.07
2018-08-16T19:56:57.154Z,64.12
2018-08-16T19:59:26.840Z,64.42
2018-08-16T20:01:56.634Z,64.28
2018-08-16T20:04:26.442Z,64.34
2018-08-16T20:06:56.206Z,65.90
2018-08-16T20:09:25.973Z,65.36
2018-08-16T20:11:55.640Z,65.75
2018-08-16T20:14:25.337Z,65.54
2018-08-16T20:16:55.082Z,66.41
2018-08-16T20:19:24.841Z,65.14
2018-08-16T20:21:54.545Z,65.43
2018-08-16T20:24:24.238Z,66.55
2018-08-16T20:26:54.002Z,66.38
2018-08-16T20:29:23.881Z,67.10
2018-08-16T20:31:53.587Z,66.06
2018-08-16T20:34:23.313Z,66.31
2018-08-16T20:36:53.785Z,65.44
2018-08-16T20:39:23.484Z,66.12
2018-08-16T20:41:53.273Z,67.05
2018-08-16T20:44:23.040Z,66.87
2018-08-16T20:46:52.782Z,67.87
2018-08-16T20:49:22.537Z,67.38
2018-08-16T20:51:55.481Z,68.28
2018-08-16T20:54:27.553Z,68.84
2018-08-16T20:56:57.286Z,68.27
2018-08-16T20:59:26.975Z,68.21
2018-08-16T21:01:56.611Z,68.00
2018-08-16T21:04:26.366Z,68.34
2018-08-16T21:06:56.133Z,67.67
2018-08-16T21:09:25.825Z,69.58
2018-08-16T21:11:55.604Z,69.37
2018-08-16T21:14:25.678Z,69.67
2018-08-16T21:16:55.582Z,68.94
2018-08-16T21:19:25.423Z,68.95
2018-08-16T21:21:55.143Z,70.05
2018-08-16T21:24:24.972Z,70.56
2018-08-16T21:26:54.663Z,70.59
2018-08-16T21:29:24.364Z,71.36
2018-08-16T21:31:54.109Z,71.50
2018-08-16T21:34:23.819Z,72.71
2018-08-16T21:36:54.054Z,72.65
2018-08-16T21:39:24.808Z,72.04
2018-08-16T21:41:54.457Z,72.52
2018-08-16T21:44:24.175Z,73.87
2018-08-16T21:46:53.913Z,73.27
2018-08-16T21:49:23.634Z,73.25
2018-08-16T21:51:53.340Z,73.29
2018-08-16T21:54:23.013Z,73.67
2018-08-16T21:56:52.845Z,73.92
2018-08-16T21:59:22.624Z,74.45
2018-08-16T22:01:52.396Z,74.67
2018-08-16T22:04:22.307Z,75.48
2018-08-16T22:07:05.120Z,76.38
2018-08-16T22:09:34.968Z,76.50
2018-08-16T22:12:04.784Z,76.98
2018-08-16T22:14:34.495Z,76.49
2018-08-16T22:17:04.258Z,76.51
2018-08-16T22:19:34.029Z,76.33
2018-08-16T22:22:03.840Z,77.37
2018-08-16T22:24:33.646Z,77.45
2018-08-16T22:27:03.462Z,74.72
2018-08-16T22:29:33.244Z,75.64
2018-08-16T22:32:02.939Z,75.17
2018-08-16T22:34:32.830Z,75.07
2018-08-16T22:37:02.659Z,75.35
2018-08-16T22:39:32.502Z,75.40
2018-08-16T22:42:02.299Z,75.89
2018-08-16T22:44:32.191Z,75.28
2018-08-16T22:47:02.742Z,75.36
2018-08-16T22:49:32.518Z,73.99
2018-08-16T22:52:02.387Z,73.83
2018-08-16T22:54:32.531Z,73.95
2018-08-16T22:57:03.710Z,72.64
2018-08-16T22:59:34.442Z,73.38
2018-08-16T23:02:04.651Z,74.07
2018-08-16T23:04:34.579Z,76.26
2018-08-16T23:07:07.799Z,76.62
2018-08-16T23:09:38.129Z,77.59
2018-08-16T23:12:09.342Z,78.75
2018-08-16T23:14:40.353Z,78.28
2018-08-16T23:17:11.736Z,79.51
2018-08-16T23:19:43.245Z,80.24
2018-08-16T23:22:13.882Z,79.85
2018-08-16T23:24:43.735Z,80.45
2018-08-16T23:27:13.542Z,81.18
2018-08-16T23:29:43.221Z,81.83
2018-08-16T23:32:12.890Z,82.20
2018-08-16T23:34:42.592Z,82.54
2018-08-16T23:37:12.305Z,82.79
2018-08-16T23:39:42.049Z,83.38
2018-08-16T23:42:11.782Z,83.57
2018-08-16T23:44:41.494Z,84.03
2018-08-16T23:47:11.485Z,84.66
2018-08-16T23:49:41.946Z,84.64
2018-08-16T23:52:12.435Z,85.44
2018-08-16T23:54:42.244Z,86.02
2018-08-16T23:57:11.995Z,86.42
2018-08-16T23:59:42.592Z,86.85
